Time,TemperatureF,DewpointF,PressureIn,WindDirection,WindDirectionDegrees,WindSpeedMPH,WindSpeedGustMPH,Humidity,HourlyPrecipIn,Conditions,Clouds,dailyrainin,SoftwareType,DateUTC
2013-04-17 00:00:00,40.0,36.0,30.38,ESE,103,0.0,1.0,85,0.00,,,0.00,weatherlink.com 1.10,2013-04-17 07:00:00,
2013-04-17 00:15:00,39.3,35.0,30.38,West,262,1.0,2.0,85,0.00,,,0.00,weatherlink.com 1.10,2013-04-17 07:15:00,
2013-04-17 00:30:00,39.1,35.0,30.39,West,262,1.0,1.0,85,0.00,,,0.00,weatherlink.com 1.10,2013-04-17 07:30:00,
2013-04-17 00:45:00,38.4,35.0,30.39,West,260,1.0,1.0,87,0.00,,,0.00,weatherlink.com 1.10,2013-04-17 07:45:00,
2013-04-17 01:00:00,38.1,35.0,30.39,West,263,1.0,2.0,87,0.00,,,0.00,weatherlink.com 1.10,2013-04-17 08:00:00,
2013-04-17 01:15:00,38.4,36.0,30.39,West,270,1.0,1.0,89,0.00,,,0.00,weatherlink.com 1.10,2013-04-17 08:15:00,
2013-04-17 01:30:00,38.0,35.0,30.39,West,262,0.0,1.0,90,0.00,,,0.00,weatherlink.com 1.10,2013-04-17 08:30:00,
2013-04-17 01:45:00,37.5,35.0,30.39,West,261,1.0,2.0,90,0.00,,,0.00,weatherlink.com 1.10,2013-04-17 08:45:00,
2013-04-17 02:00:00,37.6,35.0,30.39,West,263,1.0,2.0,90,0.00,,,0.00,weatherlink.com 1.10,2013-04-17 09:00:00,
2013-04-17 02:15:00,37.6,35.0,30.39,West,266,1.0,2.0,89,0.00,,,0.00,weatherlink.com 1.10,2013-04-17 09:15:00,
2013-04-17 02:30:00,37.7,35.0,30.39,West,260,0.0,1.0,90,0.00,,,0.00,weatherlink.com 1.10,2013-04-17 09:30:00,
2013-04-17 02:45:00,37.6,35.0,30.39,West,263,0.0,0.0,91,0.00,,,0.00,weatherlink.com 1.10,2013-04-17 09:45:00,
2013-04-17 03:00:00,37.2,35.0,30.39,West,264,1.0,2.0,92,0.00,,,0.00,weatherlink.com 1.10,2013-04-17 10:00:00,
2013-04-17 03:15:00,37.3,35.0,30.39,West,273,2.0,2.0,92,0.00,,,0.00,weatherlink.com 1.10,2013-04-17 10:15:00,
2013-04-17 03:30:00,37.4,35.0,30.39,West,278,1.0,2.0,92,0.00,,,0.00,weatherlink.com 1.10,2013-04-17 10:30:00,
2013-04-17 03:45:00,37.6,36.0,30.39,West,267,0.0,2.0,92,0.00,,,0.00,weatherlink.com 1.10,2013-04-17 10:45:00,
2013-04-17 04:00:00,37.6,36.0,30.39,West,265,0.0,1.0,92,0.00,,,0.00,weatherlink.com 1.10,2013-04-17 11:00:00,
2013-04-17 04:15:00,37.2,35.0,30.39,West,274,1.0,2.0,92,0.00,,,0.00,weatherlink.com 1.10,2013-04-17 11:15:00,
2013-04-17 04:30:00,37.3,35.0,30.39,West,273,2.0,2.0,91,0.00,,,0.00,weatherlink.com 1.10,2013-04-17 11:30:00,
2013-04-17 04:45:00,36.9,35.0,30.39,West,267,1.0,2.0,92,0.00,,,0.00,weatherlink.com 1.10,2013-04-17 11:45:00,
2013-04-17 05:00:00,36.8,35.0,30.40,West,269,1.0,1.0,92,0.00,,,0.00,weatherlink.com 1.10,2013-04-17 12:00:00,
2013-04-17 05:15:00,36.5,34.0,30.40,West,267,1.0,2.0,92,0.00,,,0.00,weatherlink.com 1.10,2013-04-17 12:15:00,
2013-04-17 05:30:00,36.7,35.0,30.40,West,273,1.0,1.0,93,0.00,,,0.00,weatherlink.com 1.10,2013-04-17 12:30:00,
2013-04-17 05:46:00,36.5,35.0,30.41,West,266,1.0,2.0,93,0.00,,,0.00,weatherlink.com 1.10,2013-04-17 12:46:00,
2013-04-17 06:01:00,36.5,35.0,30.41,West,274,0.0,1.0,94,0.00,,,0.00,weatherlink.com 1.10,2013-04-17 13:01:00,
2013-04-17 06:16:00,36.8,35.0,30.41,West,260,0.0,1.0,94,0.00,,,0.00,weatherlink.com 1.10,2013-04-17 13:16:00,
2013-04-17 06:31:00,37.2,36.0,30.41,West,260,0.0,0.0,94,0.00,,,0.00,weatherlink.com 1.10,2013-04-17 13:31:00,
2013-04-17 06:46:00,37.1,36.0,30.42,WSW,250,0.0,1.0,94,0.00,,,0.00,weatherlink.com 1.10,2013-04-17 13:46:00,
2013-04-17 07:01:00,38.0,37.0,30.42,WSW,250,0.0,0.0,95,0.00,,,0.00,weatherlink.com 1.10,2013-04-17 14:01:00,
2013-04-17 07:16:00,39.6,38.0,30.42,WSW,250,0.0,0.0,94,0.00,,,0.00,weatherlink.com 1.10,2013-04-17 14:16:00,
2013-04-17 07:46:00,41.3,39.0,30.42,SSE,158,0.0,1.0,91,0.00,,,0.00,weatherlink.com 1.10,2013-04-17 14:46:00,
2013-04-17 08:16:00,42.4,40.0,30.43,NNE,22,0.0,1.0,90,0.00,,,0.00,weatherlink.com 1.10,2013-04-17 15:16:00,
2013-04-17 08:31:00,42.7,40.0,30.43,NNE,22,0.0,1.0,90,0.00,,,0.00,weatherlink.com 1.10,2013-04-17 15:31:00,
2013-04-17 08:46:00,43.8,41.0,30.43,SE,141,4.0,6.0,88,0.00,,,0.00,weatherlink.com 1.10,2013-04-17 15:46:00,
2013-04-17 09:01:00,44.7,41.0,30.43,SSE,159,2.0,5.0,86,0.00,,,0.00,weatherlink.com 1.10,2013-04-17 16:01:00,
2013-04-17 09:16:00,46.4,42.0,30.43,SE,146,3.0,5.0,83,0.00,,,0.00,weatherlink.com 1.10,2013-04-17 16:16:00,
2013-04-17 09:31:00,47.1,42.0,30.42,ESE,122,4.0,7.0,83,0.00,,,0.00,weatherlink.com 1.10,2013-04-17 16:31:00,
2013-04-17 09:46:00,47.2,42.0,30.42,SSE,155,3.0,13.0,83,0.00,,,0.00,weatherlink.com 1.10,2013-04-17 16:46:00,
2013-04-17 10:01:00,48.1,43.0,30.42,SE,133,3.0,9.0,83,0.00,,,0.00,weatherlink.com 1.10,2013-04-17 17:01:00,
2013-04-17 10:16:00,48.9,43.0,30.42,SE,135,9.0,12.0,80,0.00,,,0.00,weatherlink.com 1.10,2013-04-17 17:16:00,
2013-04-17 10:31:00,49.1,43.0,30.42,ESE,122,3.0,9.0,80,0.00,,,0.00,weatherlink.com 1.10,2013-04-17 17:31:00,
2013-04-17 10:46:00,50.2,43.0,30.42,SE,142,4.0,11.0,75,0.00,,,0.00,weatherlink.com 1.10,2013-04-17 17:46:00,
2013-04-17 11:01:00,50.8,43.0,30.41,SSE,165,6.0,11.0,74,0.00,,,0.00,weatherlink.com 1.10,2013-04-17 18:01:00,
2013-04-17 11:16:00,51.4,42.0,30.42,South,174,5.0,11.0,70,0.00,,,0.00,weatherlink.com 1.10,2013-04-17 18:16:00,
2013-04-17 11:32:00,52.3,43.0,30.41,SSE,156,7.0,12.0,70,0.00,,,0.00,weatherlink.com 1.10,2013-04-17 18:32:00,
2013-04-17 11:47:00,52.7,42.0,30.41,SE,131,2.0,10.0,68,0.00,,,0.00,weatherlink.com 1.10,2013-04-17 18:47:00,
2013-04-17 12:02:00,52.7,42.0,30.41,SE,146,6.0,12.0,68,0.00,,,0.00,weatherlink.com 1.10,2013-04-17 19:02:00,
2013-04-17 12:17:00,53.1,42.0,30.41,SSE,154,3.0,13.0,67,0.00,,,0.00,weatherlink.com 1.10,2013-04-17 19:17:00,
2013-04-17 12:32:00,54.0,42.0,30.41,SE,129,6.0,12.0,64,0.00,,,0.00,weatherlink.com 1.10,2013-04-17 19:32:00,
2013-04-17 12:47:00,54.5,42.0,30.40,SE,129,7.0,12.0,62,0.00,,,0.00,weatherlink.com 1.10,2013-04-17 19:47:00,
2013-04-17 13:02:00,55.2,41.0,30.40,SSE,157,10.0,13.0,60,0.00,,,0.00,weatherlink.com 1.10,2013-04-17 20:02:00,
2013-04-17 13:17:00,55.7,41.0,30.39,SE,141,10.0,12.0,58,0.00,,,0.00,weatherlink.com 1.10,2013-04-17 20:17:00,
2013-04-17 13:32:00,56.2,40.0,30.39,SE,142,5.0,18.0,56,0.00,,,0.00,weatherlink.com 1.10,2013-04-17 20:32:00,
2013-04-17 13:47:00,57.1,37.0,30.39,SE,138,6.0,13.0,47,0.00,,,0.00,weatherlink.com 1.10,2013-04-17 20:47:00,
2013-04-17 14:02:00,57.5,38.0,30.39,ESE,110,3.0,12.0,48,0.00,,,0.00,weatherlink.com 1.10,2013-04-17 21:02:00,
2013-04-17 14:17:00,57.7,37.0,30.38,SE,145,6.0,13.0,47,0.00,,,0.00,weatherlink.com 1.10,2013-04-17 21:17:00,
2013-04-17 14:32:00,58.0,37.0,30.38,SSW,203,5.0,10.0,46,0.00,,,0.00,weatherlink.com 1.10,2013-04-17 21:32:00,
2013-04-17 14:47:00,57.6,38.0,30.38,SE,143,7.0,9.0,49,0.00,,,0.00,weatherlink.com 1.10,2013-04-17 21:47:00,
2013-04-17 15:02:00,57.7,39.0,30.38,South,176,6.0,7.0,50,0.00,,,0.00,weatherlink.com 1.10,2013-04-17 22:02:00,
2013-04-17 15:17:00,58.0,38.0,30.38,South,177,6.0,6.0,47,0.00,,,0.00,weatherlink.com 1.10,2013-04-17 22:17:00,
2013-04-17 15:32:00,58.0,38.0,30.38,ENE,75,1.0,7.0,48,0.00,,,0.00,weatherlink.com 1.10,2013-04-17 22:32:00,
2013-04-17 15:47:00,57.6,41.0,30.38,NNW,343,0.0,6.0,54,0.00,,,0.00,weatherlink.com 1.10,2013-04-17 22:47:00,
2013-04-17 16:02:00,56.7,43.0,30.38,NW,308,2.0,5.0,61,0.00,,,0.00,weatherlink.com 1.10,2013-04-17 23:02:00,
2013-04-17 16:17:00,55.8,44.0,30.38,North,8,3.0,3.0,64,0.00,,,0.00,weatherlink.com 1.10,2013-04-17 23:17:00,
2013-04-17 16:32:00,54.5,42.0,30.38,NNW,331,8.0,13.0,63,0.00,,,0.00,weatherlink.com 1.10,2013-04-17 23:32:00,
2013-04-17 16:47:00,53.9,42.0,30.38,North,4,8.0,10.0,64,0.00,,,0.00,weatherlink.com 1.10,2013-04-17 23:47:00,
2013-04-17 17:02:00,53.7,43.0,30.38,NNE,22,6.0,9.0,67,0.00,,,0.00,weatherlink.com 1.10,2013-04-18 00:02:00,
2013-04-17 17:17:00,53.2,43.0,30.38,NNE,25,6.0,10.0,69,0.00,,,0.00,weatherlink.com 1.10,2013-04-18 00:17:00,
2013-04-17 17:32:00,52.9,43.0,30.38,NNE,25,6.0,8.0,69,0.00,,,0.00,weatherlink.com 1.10,2013-04-18 00:32:00,
2013-04-17 17:47:00,52.4,43.0,30.38,NNE,19,6.0,8.0,70,0.00,,,0.00,weatherlink.com 1.10,2013-04-18 00:47:00,
2013-04-17 18:02:00,52.2,42.0,30.38,North,11,4.0,10.0,69,0.00,,,0.00,weatherlink.com 1.10,2013-04-18 01:02:00,
2013-04-17 18:17:00,52.2,42.0,30.38,NNE,20,5.0,10.0,69,0.00,,,0.00,weatherlink.com 1.10,2013-04-18 01:17:00,
2013-04-17 18:32:00,52.1,42.0,30.38,North,350,5.0,10.0,69,0.00,,,0.00,weatherlink.com 1.10,2013-04-18 01:32:00,
2013-04-17 18:47:00,51.9,43.0,30.38,NNE,32,3.0,7.0,73,0.00,,,0.00,weatherlink.com 1.10,2013-04-18 01:47:00,
2013-04-17 19:02:00,51.6,42.0,30.38,NNE,30,3.0,7.0,71,0.00,,,0.00,weatherlink.com 1.10,2013-04-18 02:02:00,
2013-04-17 19:17:00,51.4,42.0,30.38,North,5,5.0,5.0,71,0.00,,,0.00,weatherlink.com 1.10,2013-04-18 02:17:00,
2013-04-17 19:32:00,51.0,43.0,30.38,NE,47,2.0,6.0,74,0.00,,,0.00,weatherlink.com 1.10,2013-04-18 02:32:00,
2013-04-17 19:47:00,50.4,42.0,30.38,NE,36,4.0,5.0,74,0.00,,,0.00,weatherlink.com 1.10,2013-04-18 02:47:00,
2013-04-17 20:02:00,49.9,43.0,30.39,NNE,30,3.0,6.0,77,0.00,,,0.00,weatherlink.com 1.10,2013-04-18 03:02:00,
2013-04-17 20:17:00,49.1,42.0,30.39,NE,53,5.0,7.0,77,0.00,,,0.00,weatherlink.com 1.10,2013-04-18 03:17:00,
2013-04-17 20:32:00,48.8,43.0,30.39,NE,37,3.0,6.0,80,0.00,,,0.00,weatherlink.com 1.10,2013-04-18 03:32:00,
2013-04-17 20:47:00,48.4,43.0,30.40,NE,43,2.0,5.0,80,0.00,,,0.00,weatherlink.com 1.10,2013-04-18 03:47:00,
2013-04-17 21:02:00,48.2,43.0,30.41,NNE,25,2.0,4.0,82,0.00,,,0.00,weatherlink.com 1.10,2013-04-18 04:02:00,
2013-04-17 21:17:00,47.9,43.0,30.41,East,94,1.0,2.0,82,0.00,,,0.00,weatherlink.com 1.10,2013-04-18 04:17:00,
2013-04-17 21:32:00,47.7,43.0,30.42,ENE,77,0.0,3.0,83,0.00,,,0.00,weatherlink.com 1.10,2013-04-18 04:32:00,
2013-04-17 21:47:00,47.3,42.0,30.42,ENE,70,2.0,4.0,83,0.00,,,0.00,weatherlink.com 1.10,2013-04-18 04:47:00,
2013-04-17 22:02:00,47.0,42.0,30.42,SE,126,1.0,3.0,84,0.00,,,0.00,weatherlink.com 1.10,2013-04-18 05:02:00,
2013-04-17 22:32:00,46.7,42.0,30.42,ESE,103,3.0,4.0,84,0.00,,,0.00,weatherlink.com 1.10,2013-04-18 05:32:00,
2013-04-17 22:47:00,46.7,43.0,30.42,ENE,73,2.0,4.0,85,0.00,,,0.00,weatherlink.com 1.10,2013-04-18 05:47:00,
2013-04-17 23:02:00,46.6,42.0,30.42,NE,54,1.0,2.0,85,0.00,,,0.00,weatherlink.com 1.10,2013-04-18 06:02:00,
2013-04-17 23:17:00,46.5,42.0,30.41,ESE,106,1.0,3.0,84,0.00,,,0.00,weatherlink.com 1.10,2013-04-18 06:17:00,
2013-04-17 23:32:00,46.5,42.0,30.41,ESE,122,1.0,2.0,84,0.00,,,0.00,weatherlink.com 1.10,2013-04-18 06:32:00,
2013-04-17 23:47:00,46.5,42.0,30.42,SE,124,0.0,2.0,85,0.00,,,0.00,weatherlink.com 1.10,2013-04-18 06:47:00,